createdAt,value
2022-08-08T00:00:54.452Z,3.72
2022-08-08T00:01:17.194Z,2.70
2022-08-08T00:02:43.408Z,3.80
2022-08-08T00:03:54.131Z,2.75
2022-08-08T00:05:09.642Z,4.22
2022-08-08T00:06:28.599Z,3.58
2022-08-08T00:07:41.729Z,3.60
2022-08-08T00:08:49.943Z,4.07
2022-08-08T00:10:02.551Z,4.07
2022-08-08T00:11:16.570Z,4.63
2022-08-08T00:12:23.963Z,4.00
2022-08-08T00:14:17.572Z,3.63
2022-08-08T00:15:00.550Z,2.38
2022-08-08T00:16:06.426Z,3.67
2022-08-08T00:17:22.829Z,3.60
2022-08-08T00:18:31.473Z,3.65
2022-08-08T00:19:36.880Z,4.70
2022-08-08T00:20:49.858Z,5.10
2022-08-08T00:21:56.604Z,3.92
2022-08-08T00:23:02.685Z,5.10
2022-08-08T00:24:31.553Z,3.80
2022-08-08T00:25:45.063Z,3.17
2022-08-08T00:26:58.538Z,2.80
2022-08-08T00:28:02.279Z,2.65
2022-08-08T00:29:08.506Z,3.58
2022-08-08T00:30:15.890Z,4.97
2022-08-08T00:32:15.549Z,4.88
2022-08-08T00:32:56.089Z,2.88
2022-08-08T00:34:20.293Z,4.80
2022-08-08T00:35:41.726Z,3.45
2022-08-08T00:37:03.808Z,2.92
2022-08-08T00:38:31.272Z,3.17
2022-08-08T00:41:10.572Z,2.45
2022-08-08T00:41:22.373Z,2.55
2022-08-08T00:43:11.803Z,3.10
2022-08-08T00:44:42.080Z,2.58
2022-08-08T00:46:01.889Z,2.00
2022-08-08T00:47:36.925Z,1.67
2022-08-08T00:49:22.540Z,2.17
2022-08-08T00:50:40.657Z,1.77
2022-08-08T00:51:54.825Z,2.53
2022-08-08T00:53:04.279Z,1.90
2022-08-08T00:54:31.564Z,2.77
2022-08-08T00:55:53.112Z,1.95
2022-08-08T00:57:23.443Z,2.55
2022-08-08T00:58:54.409Z,2.28
2022-08-08T01:00:11.556Z,2.80
2022-08-08T01:01:38.396Z,2.50
2022-08-08T01:03:58.681Z,2.83
2022-08-08T01:04:42.077Z,2.13
2022-08-08T01:06:04.233Z,2.22
2022-08-08T01:07:34.843Z,3.40
2022-08-08T01:09:36.291Z,2.60
2022-08-08T01:10:56.377Z,2.80
2022-08-08T01:12:29.759Z,1.73
2022-08-08T01:13:58.426Z,2.75
2022-08-08T01:15:37.021Z,1.70
2022-08-08T01:17:05.558Z,1.83
2022-08-08T01:18:52.514Z,2.85
2022-08-08T01:20:03.920Z,2.72
2022-08-08T01:21:35.064Z,2.20
2022-08-08T01:24:02.367Z,1.33
2022-08-08T01:25:08.565Z,1.38
2022-08-08T01:26:29.180Z,1.48
2022-08-08T01:27:59.547Z,1.63
2022-08-08T01:29:12.081Z,1.40
2022-08-08T01:30:45.847Z,1.40
2022-08-08T01:32:15.645Z,2.05
2022-08-08T01:33:54.082Z,1.73
2022-08-08T01:35:30.756Z,1.23
2022-08-08T01:36:59.688Z,1.67
2022-08-08T01:38:23.377Z,1.52
2022-08-08T01:39:42.100Z,1.40
2022-08-08T01:40:50.774Z,1.95
2022-08-08T01:42:02.446Z,1.70
2022-08-08T01:43:08.836Z,2.27
2022-08-08T01:44:26.522Z,2.43
2022-08-08T01:45:56.436Z,1.27
2022-08-08T01:48:13.847Z,2.30
2022-08-08T01:48:48.929Z,1.73
2022-08-08T01:49:53.992Z,1.65
2022-08-08T01:51:32.421Z,1.30
2022-08-08T01:54:19.881Z,1.90
2022-08-08T01:55:17.938Z,0.90
2022-08-08T01:56:30.597Z,1.43
2022-08-08T01:57:24.562Z,1.63
2022-08-08T01:58:49.616Z,1.20
2022-08-08T02:00:03.578Z,1.33
2022-08-08T02:01:17.176Z,1.40
2022-08-08T02:02:39.810Z,1.48
2022-08-08T02:03:59.564Z,1.10
2022-08-08T02:05:09.959Z,1.43
2022-08-08T02:06:32.358Z,1.83
2022-08-08T02:08:03.605Z,1.35
2022-08-08T02:09:16.021Z,1.67
2022-08-08T02:10:45.084Z,1.73
2022-08-08T02:11:59.435Z,1.25
2022-08-08T02:13:06.990Z,1.90
2022-08-08T02:14:20.371Z,1.30
2022-08-08T02:15:29.153Z,1.88
2022-08-08T02:16:44.614Z,1.60
2022-08-08T02:17:53.072Z,1.08
2022-08-08T02:19:00.698Z,1.47
2022-08-08T02:20:59.965Z,1.23
2022-08-08T02:22:10.596Z,1.75
2022-08-08T02:23:22.702Z,2.05
2022-08-08T02:24:35.002Z,1.80
2022-08-08T02:25:50.056Z,2.28
2022-08-08T02:27:02.629Z,1.77
2022-08-08T02:28:09.106Z,1.83
2022-08-08T02:29:21.608Z,1.50
2022-08-08T02:30:27.995Z,1.38
2022-08-08T02:31:59.344Z,1.50
2022-08-08T02:33:21.724Z,1.43
2022-08-08T02:35:07.816Z,1.00
2022-08-08T02:36:23.774Z,1.08
2022-08-08T02:37:52.610Z,1.35
2022-08-08T02:39:42.388Z,1.30
2022-08-08T02:40:50.196Z,1.00
2022-08-08T02:42:12.668Z,1.55
2022-08-08T02:44:42.372Z,1.73
2022-08-08T02:45:18.791Z,1.38
2022-08-08T02:46:37.609Z,1.48
2022-08-08T02:47:59.857Z,1.95
2022-08-08T02:49:27.399Z,1.27
2022-08-08T02:51:04.193Z,1.13
2022-08-08T02:52:32.770Z,1.43
2022-08-08T02:54:04.276Z,1.42
2022-08-08T02:55:26.672Z,1.83
2022-08-08T02:56:58.602Z,1.48
2022-08-08T02:58:28.980Z,1.37
2022-08-08T03:00:01.619Z,1.48
2022-08-08T03:01:26.085Z,1.50
2022-08-08T03:02:53.975Z,1.05
2022-08-08T03:05:04.334Z,1.83
2022-08-08T03:06:24.152Z,1.48
2022-08-08T03:07:57.598Z,1.00
2022-08-08T03:09:28.563Z,1.55
2022-08-08T03:10:59.617Z,0.88
2022-08-08T03:12:36.448Z,1.27
2022-08-08T03:15:56.874Z,0.95
2022-08-08T03:15:58.626Z,0.87
2022-08-08T03:16:59.820Z,1.05
2022-08-08T03:18:07.652Z,1.40
2022-08-08T03:19:36.626Z,1.48
2022-08-08T03:20:47.052Z,0.85
2022-08-08T03:21:59.633Z,1.30
2022-08-08T03:23:04.900Z,1.90
2022-08-08T03:24:21.604Z,1.33
2022-08-08T03:25:33.998Z,1.15
2022-08-08T03:26:42.612Z,1.63
2022-08-08T03:27:57.638Z,0.65
2022-08-08T03:29:03.654Z,0.83
2022-08-08T03:30:20.485Z,1.23
2022-08-08T03:32:06.148Z,1.35
2022-08-08T03:33:56.355Z,1.23
2022-08-08T03:34:54.190Z,1.00
2022-08-08T03:35:57.662Z,0.90
2022-08-08T03:37:20.066Z,1.25
2022-08-08T03:38:55.055Z,1.13
2022-08-08T03:40:00.491Z,1.17
2022-08-08T03:42:03.915Z,1.60
2022-08-08T03:42:33.615Z,1.00
2022-08-08T03:43:38.535Z,1.73
2022-08-08T03:44:44.967Z,1.55
2022-08-08T03:46:06.251Z,1.05
2022-08-08T03:47:20.600Z,1.23
2022-08-08T03:49:09.799Z,1.30
2022-08-08T03:50:01.172Z,1.70
2022-08-08T03:51:08.955Z,1.83
2022-08-08T03:52:23.651Z,1.33
2022-08-08T03:53:42.468Z,1.10
2022-08-08T03:55:10.428Z,1.07
2022-08-08T03:56:31.683Z,1.30
2022-08-08T03:58:35.041Z,1.60
2022-08-08T03:58:58.483Z,1.30
2022-08-08T04:00:11.893Z,1.87
2022-08-08T04:01:24.580Z,1.20
2022-08-08T04:02:36.527Z,1.43
2022-08-08T04:03:59.971Z,1.70
2022-08-08T04:05:05.294Z,1.00
2022-08-08T04:06:21.618Z,1.40
2022-08-08T04:07:24.511Z,0.97
2022-08-08T04:08:34.820Z,1.50
2022-08-08T04:10:03.003Z,1.37
2022-08-08T04:11:10.904Z,1.33
2022-08-08T04:12:15.747Z,1.37
2022-08-08T04:13:20.748Z,1.53
2022-08-08T04:14:33.988Z,1.20
2022-08-08T04:15:39.227Z,1.77
2022-08-08T04:16:57.813Z,1.47
2022-08-08T04:18:01.287Z,1.70
2022-08-08T04:19:23.640Z,1.47
2022-08-08T04:20:36.628Z,1.53
2022-08-08T04:21:41.225Z,1.57
2022-08-08T04:22:51.430Z,1.53
2022-08-08T04:24:22.413Z,1.33
2022-08-08T04:25:40.629Z,1.40
2022-08-08T04:26:57.635Z,1.57
2022-08-08T04:28:36.954Z,1.17
2022-08-08T04:29:25.596Z,1.63
2022-08-08T04:30:39.875Z,1.50
2022-08-08T04:31:59.715Z,1.10
2022-08-08T04:33:03.943Z,1.20
2022-08-08T04:34:10.552Z,1.63
2022-08-08T04:35:14.329Z,1.50
2022-08-08T04:36:23.649Z,1.20
2022-08-08T04:37:32.087Z,1.40
2022-08-08T04:38:36.196Z,1.87
2022-08-08T04:40:05.962Z,1.60
2022-08-08T04:41:10.745Z,1.50
2022-08-08T04:42:21.648Z,1.60
2022-08-08T04:43:31.984Z,1.73
2022-08-08T04:44:49.575Z,2.40
2022-08-08T04:45:52.140Z,1.67
2022-08-08T04:47:02.664Z,1.60
2022-08-08T04:48:06.337Z,1.23
2022-08-08T04:49:11.413Z,1.47
2022-08-08T04:50:23.899Z,2.00
2022-08-08T04:51:55.354Z,1.70
2022-08-08T04:53:00.939Z,1.47
2022-08-08T04:54:38.812Z,2.30
2022-08-08T04:55:47.434Z,1.40
2022-08-08T04:57:03.699Z,1.60
2022-08-08T04:58:10.893Z,1.20
2022-08-08T04:59:15.742Z,1.27
2022-08-08T05:00:19.922Z,1.77
2022-08-08T05:01:25.245Z,1.53
2022-08-08T05:02:44.777Z,1.37
2022-08-08T05:04:11.680Z,2.03
2022-08-08T05:05:16.204Z,1.83
2022-08-08T05:06:27.807Z,2.03
2022-08-08T05:07:37.735Z,1.77
2022-08-08T05:08:53.063Z,2.10
2022-08-08T05:09:56.486Z,1.50
2022-08-08T05:11:02.927Z,2.27
2022-08-08T05:12:09.205Z,2.23
2022-08-08T05:13:17.593Z,2.97
2022-08-08T05:14:29.311Z,3.63
2022-08-08T05:16:53.189Z,3.10
2022-08-08T05:17:01.505Z,1.80
2022-08-08T05:18:05.537Z,3.63
2022-08-08T05:20:12.764Z,4.30
2022-08-08T05:20:49.929Z,1.97
2022-08-08T05:21:58.045Z,3.10
2022-08-08T05:23:03.622Z,2.90
2022-08-08T05:24:26.707Z,3.53
2022-08-08T05:25:40.485Z,2.77
2022-08-08T05:26:46.319Z,3.20
2022-08-08T05:27:55.145Z,3.73
2022-08-08T05:29:04.765Z,4.60
2022-08-08T05:30:17.664Z,4.63
2022-08-08T05:32:04.207Z,4.47
2022-08-08T05:32:54.858Z,4.90
2022-08-08T05:33:57.451Z,5.23
2022-08-08T05:35:07.669Z,5.70
2022-08-08T05:36:25.135Z,4.87
2022-08-08T05:37:49.318Z,5.47
2022-08-08T05:38:55.589Z,4.60
2022-08-08T05:40:04.745Z,5.03
2022-08-08T05:41:16.672Z,4.73
2022-08-08T05:42:32.454Z,4.53
2022-08-08T05:44:02.676Z,4.83
2022-08-08T05:45:24.719Z,4.47
2022-08-08T05:46:32.644Z,4.63
2022-08-08T05:47:52.802Z,4.37
2022-08-08T05:49:00.900Z,3.73
2022-08-08T05:50:04.843Z,4.00
2022-08-08T05:51:16.221Z,3.50
2022-08-08T05:52:32.025Z,3.90
2022-08-08T05:54:24.350Z,3.70
2022-08-08T05:55:07.411Z,4.13
2022-08-08T05:56:20.661Z,3.23
2022-08-08T05:57:59.630Z,3.50
2022-08-08T05:58:56.905Z,4.67
2022-08-08T06:00:22.362Z,3.07
2022-08-08T06:01:51.285Z,2.20
2022-08-08T06:03:24.954Z,1.53
2022-08-08T06:04:30.321Z,2.77
2022-08-08T06:05:36.353Z,2.40
2022-08-08T06:06:48.200Z,1.37
2022-08-08T06:08:00.148Z,1.07
2022-08-08T06:09:58.482Z,1.07
2022-08-08T06:10:32.188Z,0.80
2022-08-08T06:11:45.761Z,0.93
2022-08-08T06:12:56.688Z,0.73
2022-08-08T06:14:02.573Z,0.97
2022-08-08T06:15:06.733Z,0.60
2022-08-08T06:16:13.144Z,0.97
2022-08-08T06:17:19.231Z,0.63
2022-08-08T06:18:47.666Z,1.10
2022-08-08T06:19:53.313Z,0.60
2022-08-08T06:21:03.794Z,1.07
2022-08-08T06:23:53.035Z,0.70
2022-08-08T06:26:35.228Z,0.93
2022-08-08T06:26:52.868Z,0.83
2022-08-08T06:27:56.915Z,0.57
2022-08-08T06:29:49.361Z,0.60
2022-08-08T06:30:35.209Z,0.67
2022-08-08T06:31:52.304Z,0.97
2022-08-08T06:32:58.183Z,1.27
2022-08-08T06:34:26.754Z,0.50
2022-08-08T06:36:07.350Z,0.77
2022-08-08T06:37:10.723Z,1.10
2022-08-08T06:38:29.932Z,1.13
2022-08-08T06:39:34.003Z,0.63
2022-08-08T06:40:48.548Z,0.93
2022-08-08T06:41:57.424Z,0.67
2022-08-08T06:43:05.222Z,0.90
2022-08-08T06:44:23.026Z,0.50
2022-08-08T06:45:30.409Z,0.77
2022-08-08T06:46:40.873Z,1.07
2022-08-08T06:47:52.698Z,0.90
2022-08-08T06:49:05.783Z,1.17
2022-08-08T06:50:17.575Z,0.60
2022-08-08T06:51:47.177Z,0.73
2022-08-08T06:52:56.603Z,0.63
2022-08-08T06:54:00.769Z,1.80
2022-08-08T06:55:07.005Z,0.57
2022-08-08T06:56:18.909Z,0.60
2022-08-08T06:57:29.445Z,0.63
2022-08-08T06:58:47.942Z,0.60
2022-08-08T07:00:10.883Z,0.67
2022-08-08T07:02:16.257Z,0.80
2022-08-08T07:02:47.721Z,1.30
2022-08-08T07:04:37.864Z,0.97
2022-08-08T07:05:20.633Z,1.00
2022-08-08T07:06:36.875Z,0.40
2022-08-08T07:07:50.092Z,0.50
2022-08-08T07:08:54.764Z,0.83
2022-08-08T07:10:03.838Z,0.70
2022-08-08T07:11:22.143Z,0.53
2022-08-08T07:12:30.686Z,0.80
2022-08-08T07:13:39.333Z,0.60
2022-08-08T07:15:06.004Z,0.90
2022-08-08T07:16:20.682Z,1.07
2022-08-08T07:17:40.423Z,0.70
2022-08-08T07:19:07.721Z,0.80
2022-08-08T07:20:11.266Z,1.20
2022-08-08T07:21:19.226Z,0.80
2022-08-08T07:22:32.742Z,0.83
2022-08-08T07:24:01.178Z,0.70
2022-08-08T07:25:09.399Z,0.90
2022-08-08T07:26:13.038Z,0.90
2022-08-08T07:27:35.440Z,0.60
2022-08-08T07:28:53.656Z,0.70
2022-08-08T07:30:09.988Z,0.60
2022-08-08T07:31:18.855Z,1.03
2022-08-08T07:32:24.365Z,0.90
2022-08-08T07:33:37.973Z,1.47
2022-08-08T07:35:00.375Z,1.03
2022-08-08T07:36:08.020Z,0.57
2022-08-08T07:37:13.533Z,1.07
2022-08-08T07:38:21.041Z,0.77
2022-08-08T07:39:56.266Z,0.70
2022-08-08T07:41:04.456Z,0.53
2022-08-08T07:42:12.573Z,0.70
2022-08-08T07:43:37.145Z,0.60
2022-08-08T07:44:48.749Z,0.67
2022-08-08T07:46:18.342Z,1.07
2022-08-08T07:47:39.179Z,0.53
2022-08-08T07:48:43.236Z,0.63
2022-08-08T07:49:53.735Z,0.90
2022-08-08T07:50:58.920Z,0.90
2022-08-08T07:52:03.206Z,0.70
2022-08-08T07:53:12.565Z,0.97
2022-08-08T07:54:46.766Z,0.70
2022-08-08T07:55:53.483Z,0.80
2022-08-08T07:57:01.765Z,0.90
2022-08-08T07:58:12.795Z,1.03
2022-08-08T07:59:16.136Z,0.80
2022-08-08T08:00:30.885Z,0.67
2022-08-08T08:02:32.805Z,0.77
2022-08-08T08:03:13.864Z,1.03
2022-08-08T08:04:26.019Z,0.37
2022-08-08T08:05:37.772Z,0.60
2022-08-08T08:06:44.563Z,0.70
2022-08-08T08:07:53.316Z,0.90
2022-08-08T08:09:02.724Z,0.40
2022-08-08T08:10:12.371Z,0.80
2022-08-08T08:11:38.247Z,0.60
2022-08-08T08:13:43.111Z,0.60
2022-08-08T08:14:55.781Z,0.53
2022-08-08T08:16:07.742Z,0.53
2022-08-08T08:17:14.407Z,0.70
2022-08-08T08:18:31.819Z,0.67
2022-08-08T08:19:45.753Z,0.70
2022-08-08T08:20:49.985Z,0.73
2022-08-08T08:22:00.696Z,0.93
2022-08-08T08:23:03.521Z,0.70
2022-08-08T08:24:07.765Z,0.77
2022-08-08T08:25:42.791Z,1.57
2022-08-08T08:26:52.986Z,0.63
2022-08-08T08:27:58.368Z,0.93
2022-08-08T08:29:00.914Z,0.70
2022-08-08T08:30:12.747Z,0.50
2022-08-08T08:31:17.494Z,0.83
2022-08-08T08:32:35.969Z,0.57
2022-08-08T08:33:43.617Z,0.60
2022-08-08T08:34:52.578Z,1.10
2022-08-08T08:36:19.763Z,0.90
2022-08-08T08:37:29.786Z,0.60
2022-08-08T08:38:33.114Z,0.63
2022-08-08T08:40:01.064Z,0.70
2022-08-08T08:41:17.211Z,1.23
2022-08-08T08:42:29.244Z,0.63
2022-08-08T08:43:42.409Z,0.70
2022-08-08T08:44:48.495Z,0.97
2022-08-08T08:45:58.982Z,0.97
2022-08-08T08:47:09.007Z,1.90
2022-08-08T08:48:16.430Z,0.70
2022-08-08T08:49:26.021Z,1.83
2022-08-08T08:50:35.253Z,1.07
2022-08-08T08:51:51.244Z,0.60
2022-08-08T08:52:59.900Z,0.77
2022-08-08T08:54:14.766Z,0.90
2022-08-08T08:55:20.240Z,0.73
2022-08-08T08:56:26.211Z,0.80
2022-08-08T08:57:30.606Z,0.97
2022-08-08T08:58:50.377Z,1.37
2022-08-08T08:59:59.413Z,0.50
2022-08-08T09:01:13.082Z,0.73
2022-08-08T09:02:21.732Z,0.60
2022-08-08T09:03:31.295Z,0.80
2022-08-08T09:05:00.732Z,0.50
2022-08-08T09:06:04.057Z,0.80
2022-08-08T09:07:39.705Z,0.77
2022-08-08T09:08:57.625Z,0.90
2022-08-08T09:10:13.562Z,1.23
2022-08-08T09:11:21.192Z,0.77
2022-08-08T09:12:30.737Z,0.60
2022-08-08T09:13:36.446Z,0.63
2022-08-08T09:14:42.517Z,0.60
2022-08-08T09:15:49.422Z,1.00
2022-08-08T09:16:59.707Z,0.97
2022-08-08T09:18:04.023Z,0.60
2022-08-08T09:19:09.152Z,0.57
2022-08-08T09:21:56.298Z,0.73
2022-08-08T09:22:02.793Z,0.70
2022-08-08T09:23:11.500Z,0.80
2022-08-08T09:24:28.132Z,0.60
2022-08-08T09:25:54.896Z,0.30
2022-08-08T09:27:20.123Z,0.47
2022-08-08T09:28:39.518Z,0.60
2022-08-08T09:29:52.307Z,0.80
2022-08-08T09:31:12.803Z,0.90
2022-08-08T09:32:19.426Z,0.60
2022-08-08T09:34:14.633Z,0.77
2022-08-08T09:34:51.894Z,0.70
2022-08-08T09:35:56.929Z,1.03
2022-08-08T09:37:57.950Z,0.50
2022-08-08T09:38:52.995Z,0.50
2022-08-08T09:40:02.590Z,0.90
2022-08-08T09:41:07.905Z,0.60
2022-08-08T09:42:22.154Z,0.67
2022-08-08T09:44:05.701Z,0.87
2022-08-08T09:45:03.704Z,0.47
2022-08-08T09:46:10.947Z,0.67
2022-08-08T09:47:25.405Z,0.63
2022-08-08T09:48:50.192Z,0.87
2022-08-08T09:49:52.933Z,0.50
2022-08-08T09:51:06.800Z,0.80
2022-08-08T09:52:16.150Z,0.67
2022-08-08T09:54:00.001Z,0.73
2022-08-08T09:55:17.493Z,0.87
2022-08-08T09:56:41.006Z,0.90
2022-08-08T09:57:55.634Z,0.70
2022-08-08T09:59:40.345Z,0.90
2022-08-08T10:00:53.656Z,0.60
2022-08-08T10:02:02.918Z,0.93
2022-08-08T10:03:19.809Z,0.53
2022-08-08T10:04:38.519Z,0.77
2022-08-08T10:05:51.207Z,0.40
2022-08-08T10:07:07.180Z,0.40
2022-08-08T10:08:11.365Z,0.87
2022-08-08T10:09:21.927Z,0.93
2022-08-08T10:10:30.159Z,0.80
2022-08-08T10:12:26.491Z,1.17
2022-08-08T10:13:14.095Z,0.77
2022-08-08T10:14:28.242Z,0.70
2022-08-08T10:15:59.182Z,1.33
2022-08-08T10:17:38.715Z,1.10
2022-08-08T10:18:36.744Z,0.83
2022-08-08T10:19:57.795Z,0.77
2022-08-08T10:21:23.011Z,0.80
2022-08-08T10:22:30.469Z,0.70
2022-08-08T10:23:57.889Z,0.50
2022-08-08T10:25:22.760Z,0.73
2022-08-08T10:26:30.556Z,0.60
2022-08-08T10:27:54.123Z,0.50
2022-08-08T10:29:11.485Z,0.90
2022-08-08T10:30:16.158Z,0.47
2022-08-08T10:32:03.774Z,0.73
2022-08-08T10:33:12.265Z,0.87
2022-08-08T10:34:20.054Z,0.83
2022-08-08T10:36:09.721Z,0.43
2022-08-08T10:36:50.442Z,0.80
2022-08-08T10:38:03.977Z,0.80
2022-08-08T10:39:09.895Z,0.50
2022-08-08T10:40:16.817Z,0.80
2022-08-08T10:41:23.546Z,0.73
2022-08-08T10:42:45.797Z,0.90
2022-08-08T10:43:58.834Z,0.60
2022-08-08T10:45:02.463Z,0.37
2022-08-08T10:46:29.661Z,0.90
2022-08-08T10:47:43.600Z,0.60
2022-08-08T10:48:56.646Z,0.50
2022-08-08T10:50:09.821Z,0.60
2022-08-08T10:51:19.039Z,0.60
2022-08-08T10:52:30.784Z,0.63
2022-08-08T10:53:56.618Z,0.40
2022-08-08T10:55:06.316Z,0.87
2022-08-08T10:56:27.516Z,0.90
2022-08-08T10:57:49.698Z,1.27
2022-08-08T10:58:58.966Z,0.70
2022-08-08T11:00:02.430Z,0.50
2022-08-08T11:01:10.998Z,0.70
2022-08-08T11:02:21.854Z,0.97
2022-08-08T11:03:36.730Z,0.50
2022-08-08T11:04:53.076Z,0.70
2022-08-08T11:06:03.791Z,0.80
2022-08-08T11:07:40.722Z,0.80
2022-08-08T11:08:42.836Z,0.80
2022-08-08T11:09:48.823Z,1.00
2022-08-08T11:11:01.767Z,0.70
2022-08-08T11:12:14.075Z,0.70
2022-08-08T11:13:29.734Z,0.77
2022-08-08T11:14:33.787Z,0.97
2022-08-08T11:15:52.470Z,1.30
2022-08-08T11:17:01.175Z,1.23
2022-08-08T11:18:11.805Z,1.43
2022-08-08T11:19:15.386Z,1.00
2022-08-08T11:20:29.220Z,0.83
2022-08-08T11:21:37.651Z,1.73
2022-08-08T11:22:42.095Z,0.80
2022-08-08T11:24:01.976Z,0.80
2022-08-08T11:25:52.169Z,0.80
2022-08-08T11:26:58.151Z,0.60
2022-08-08T11:28:10.821Z,1.37
2022-08-08T11:29:15.878Z,1.20
2022-08-08T11:30:24.940Z,0.90
2022-08-08T11:31:47.087Z,1.00
2022-08-08T11:32:54.770Z,1.10
2022-08-08T11:34:02.907Z,0.73
2022-08-08T11:35:27.645Z,1.00
2022-08-08T11:36:39.921Z,0.67
2022-08-08T11:38:35.701Z,1.40
2022-08-08T11:39:12.963Z,0.80
2022-08-08T11:40:25.831Z,0.90
2022-08-08T11:41:37.856Z,0.90
2022-08-08T11:42:48.984Z,0.70
2022-08-08T11:43:52.000Z,1.43
2022-08-08T11:44:58.914Z,1.10
2022-08-08T11:46:14.228Z,1.30
2022-08-08T11:47:22.408Z,1.30
2022-08-08T11:48:49.996Z,0.90
2022-08-08T11:49:54.632Z,1.10
2022-08-08T11:50:58.303Z,1.20
2022-08-08T11:52:03.326Z,1.07
2022-08-08T11:53:13.859Z,0.90
2022-08-08T11:54:32.452Z,2.03
2022-08-08T11:55:37.629Z,2.07
2022-08-08T11:56:42.127Z,1.03
2022-08-08T11:57:56.915Z,0.80
2022-08-08T11:59:08.160Z,0.77
2022-08-08T12:00:18.192Z,1.40
2022-08-08T12:01:32.304Z,0.80
2022-08-08T12:02:53.904Z,0.93
2022-08-08T12:03:59.649Z,1.10
2022-08-08T12:05:07.804Z,1.03
2022-08-08T12:06:17.224Z,1.00
2022-08-08T12:07:25.519Z,0.97
2022-08-08T12:08:38.937Z,0.90
2022-08-08T12:09:59.358Z,0.73
2022-08-08T12:11:05.537Z,0.90
2022-08-08T12:12:08.634Z,0.90
2022-08-08T12:13:19.815Z,1.00
2022-08-08T12:14:37.103Z,0.67
2022-08-08T12:15:46.729Z,1.10
2022-08-08T12:16:53.312Z,1.00
2022-08-08T12:17:56.023Z,1.00
2022-08-08T12:19:06.154Z,1.10
2022-08-08T12:20:10.209Z,0.80
2022-08-08T12:21:25.868Z,1.27
2022-08-08T12:22:49.640Z,1.07
2022-08-08T12:24:10.846Z,1.40
2022-08-08T12:25:38.313Z,1.00
2022-08-08T12:26:50.014Z,1.00
2022-08-08T12:27:53.104Z,0.70
2022-08-08T12:29:02.723Z,0.93
2022-08-08T12:30:18.616Z,1.03
2022-08-08T12:31:38.701Z,0.90
2022-08-08T12:32:56.844Z,1.10
2022-08-08T12:34:02.580Z,0.87
2022-08-08T12:35:18.474Z,0.80
2022-08-08T12:36:21.278Z,1.10
2022-08-08T12:37:40.471Z,1.20
2022-08-08T12:38:51.284Z,0.63
2022-08-08T12:40:02.785Z,0.80
2022-08-08T12:41:35.144Z,1.10
2022-08-08T12:42:53.941Z,0.87
2022-08-08T12:44:06.211Z,0.93
2022-08-08T12:45:54.747Z,0.90
2022-08-08T12:46:34.238Z,1.27
2022-08-08T12:48:04.466Z,0.93
2022-08-08T12:49:40.253Z,0.93
2022-08-08T12:50:47.880Z,0.90
2022-08-08T12:51:59.061Z,0.93
2022-08-08T12:53:03.442Z,0.70
2022-08-08T12:54:24.423Z,1.10
2022-08-08T12:55:50.180Z,1.10
2022-08-08T12:56:54.338Z,0.90
2022-08-08T12:57:57.801Z,0.98
2022-08-08T12:59:00.580Z,1.23
2022-08-08T13:00:13.460Z,1.25
2022-08-08T13:01:24.764Z,0.68
2022-08-08T13:02:51.451Z,0.80
2022-08-08T13:03:55.973Z,0.82
2022-08-08T13:05:25.796Z,0.75
2022-08-08T13:06:34.868Z,1.05
2022-08-08T13:08:03.848Z,0.93
2022-08-08T13:09:10.602Z,0.85
2022-08-08T13:10:28.197Z,0.80
2022-08-08T13:12:19.929Z,0.95
2022-08-08T13:13:06.073Z,1.00
2022-08-08T13:14:12.972Z,1.10
2022-08-08T13:15:24.827Z,1.00
2022-08-08T13:16:34.017Z,1.20
2022-08-08T13:18:08.848Z,1.23
2022-08-08T13:19:09.288Z,0.85
2022-08-08T13:20:17.400Z,0.90
2022-08-08T13:21:21.036Z,1.20
2022-08-08T13:22:32.822Z,0.98
2022-08-08T13:23:36.837Z,1.30
2022-08-08T13:24:51.905Z,1.02
2022-08-08T13:26:16.050Z,1.00
2022-08-08T13:27:30.004Z,0.90
2022-08-08T13:28:49.542Z,0.83
2022-08-08T13:29:53.877Z,0.80
2022-08-08T13:30:56.962Z,1.03
2022-08-08T13:32:11.054Z,0.70
2022-08-08T13:33:23.822Z,0.80
2022-08-08T13:34:36.412Z,1.23
2022-08-08T13:35:43.979Z,0.70
2022-08-08T13:36:53.065Z,0.67
2022-08-08T13:38:13.145Z,0.70
2022-08-08T13:39:17.568Z,1.40
2022-08-08T13:40:27.205Z,0.77
2022-08-08T13:41:38.867Z,0.90
2022-08-08T13:42:48.882Z,0.77
2022-08-08T13:44:00.866Z,0.53
2022-08-08T13:45:04.833Z,1.03
2022-08-08T13:46:27.469Z,1.23
2022-08-08T13:47:38.846Z,1.10
2022-08-08T13:50:33.645Z,1.00
2022-08-08T13:50:34.872Z,0.73
2022-08-08T13:51:41.683Z,0.97
2022-08-08T13:52:52.103Z,0.90
2022-08-08T13:54:05.024Z,0.70
2022-08-08T13:55:10.360Z,1.43
2022-08-08T13:56:16.566Z,1.03
2022-08-08T13:57:46.420Z,0.70
2022-08-08T13:58:58.044Z,1.33
2022-08-08T14:00:10.850Z,0.90
2022-08-08T14:01:15.023Z,1.00
2022-08-08T14:02:20.832Z,1.20
2022-08-08T14:03:53.083Z,0.80
2022-08-08T14:05:09.102Z,1.17
2022-08-08T14:06:33.014Z,1.20
2022-08-08T14:07:39.500Z,1.10
2022-08-08T14:08:45.835Z,0.87
2022-08-08T14:10:05.519Z,0.80
2022-08-08T14:11:20.859Z,0.60
2022-08-08T14:12:28.184Z,1.03
2022-08-08T14:13:34.349Z,1.10
2022-08-08T14:14:42.681Z,0.90
2022-08-08T14:15:55.878Z,1.07
2022-08-08T14:17:04.258Z,1.13
2022-08-08T14:18:35.789Z,1.17
2022-08-08T14:19:57.106Z,0.73
2022-08-08T14:21:15.206Z,0.97
2022-08-08T14:22:25.393Z,0.80
2022-08-08T14:24:04.383Z,0.80
2022-08-08T14:24:52.500Z,1.10
2022-08-08T14:26:11.024Z,0.67
2022-08-08T14:27:33.425Z,0.83
2022-08-08T14:28:39.509Z,1.00
2022-08-08T14:29:53.903Z,1.00
2022-08-08T14:31:20.336Z,0.57
2022-08-08T14:32:30.438Z,0.83
2022-08-08T14:33:34.029Z,0.80
2022-08-08T14:34:42.749Z,1.10
2022-08-08T14:35:49.618Z,0.80
2022-08-08T14:37:02.904Z,1.00
2022-08-08T14:38:34.547Z,0.90
2022-08-08T14:39:48.437Z,0.90
2022-08-08T14:40:53.156Z,1.03
2022-08-08T14:42:03.288Z,0.97
2022-08-08T14:43:22.277Z,0.70
2022-08-08T14:44:41.574Z,1.10
2022-08-08T14:46:03.137Z,0.90
2022-08-08T14:47:21.086Z,1.00
2022-08-08T14:48:38.879Z,0.90
2022-08-08T14:50:06.113Z,1.07
2022-08-08T14:51:07.521Z,1.10
2022-08-08T14:52:21.357Z,0.63
2022-08-08T14:53:25.664Z,1.00
2022-08-08T14:54:28.711Z,1.00
2022-08-08T14:55:42.062Z,0.63
2022-08-08T14:56:45.411Z,0.83
2022-08-08T14:58:02.542Z,1.03
2022-08-08T14:59:22.126Z,0.70
2022-08-08T15:00:36.296Z,0.93
2022-08-08T15:01:41.142Z,0.70
2022-08-08T15:03:01.432Z,1.37
2022-08-08T15:04:19.905Z,1.50
2022-08-08T15:05:23.119Z,0.90
2022-08-08T15:06:46.507Z,0.60
2022-08-08T15:07:59.923Z,1.00
2022-08-08T15:09:09.978Z,0.83
2022-08-08T15:10:16.459Z,0.90
2022-08-08T15:11:20.552Z,0.80
2022-08-08T15:12:27.696Z,0.63
2022-08-08T15:13:40.631Z,1.00
2022-08-08T15:15:09.252Z,0.70
2022-08-08T15:16:14.525Z,0.70
2022-08-08T15:17:17.324Z,0.80
2022-08-08T15:18:22.733Z,0.90
2022-08-08T15:19:39.962Z,0.70
2022-08-08T15:20:44.379Z,0.85
2022-08-08T15:21:47.661Z,0.57
2022-08-08T15:22:52.200Z,0.90
2022-08-08T15:23:58.857Z,0.77
2022-08-08T15:25:17.931Z,0.67
2022-08-08T15:26:40.051Z,0.80
2022-08-08T15:28:04.486Z,1.00
2022-08-08T15:29:22.707Z,0.70
2022-08-08T15:30:34.872Z,0.60
2022-08-08T15:32:17.480Z,0.77
2022-08-08T15:33:08.587Z,0.97
2022-08-08T15:34:18.352Z,0.90
2022-08-08T15:35:39.037Z,0.50
2022-08-08T15:36:51.942Z,0.60
2022-08-08T15:37:56.032Z,0.60
2022-08-08T15:38:58.974Z,0.80
2022-08-08T15:40:02.583Z,0.70
2022-08-08T15:41:07.049Z,0.70
2022-08-08T15:42:31.359Z,0.83
2022-08-08T15:43:38.022Z,0.90
2022-08-08T15:44:41.039Z,0.80
2022-08-08T15:45:48.900Z,1.30
2022-08-08T15:46:51.823Z,0.87
2022-08-08T15:48:15.473Z,0.93
2022-08-08T15:49:21.197Z,0.80
2022-08-08T15:50:51.896Z,0.70
2022-08-08T15:51:55.015Z,0.70
2022-08-08T15:53:04.978Z,1.50
2022-08-08T15:54:37.603Z,0.80
2022-08-08T15:55:33.317Z,1.13
2022-08-08T15:56:35.814Z,1.20
2022-08-08T15:57:40.963Z,0.83
2022-08-08T15:58:50.370Z,1.30
2022-08-08T16:00:05.913Z,0.93
2022-08-08T16:01:18.088Z,0.60
2022-08-08T16:02:21.562Z,0.77
2022-08-08T16:03:31.925Z,0.90
2022-08-08T16:04:36.592Z,1.20
2022-08-08T16:05:53.220Z,1.53
2022-08-08T16:07:03.913Z,0.83
2022-08-08T16:08:13.976Z,1.60
2022-08-08T16:13:02.148Z,0.80
2022-08-08T16:13:03.012Z,0.67
2022-08-08T16:13:28.301Z,0.87
2022-08-08T16:13:46.792Z,0.80
2022-08-08T16:14:53.579Z,6.43
2022-08-08T16:16:09.495Z,1.53
2022-08-08T16:17:39.123Z,0.80
2022-08-08T16:18:56.478Z,0.97
2022-08-08T16:20:02.946Z,1.30
2022-08-08T16:21:25.825Z,0.60
2022-08-08T16:22:30.537Z,1.00
2022-08-08T16:23:39.937Z,0.97
2022-08-08T16:24:45.842Z,0.80
2022-08-08T16:25:58.176Z,1.03
2022-08-08T16:27:17.761Z,0.70
2022-08-08T16:28:32.613Z,1.00
2022-08-08T16:30:08.940Z,0.90
2022-08-08T16:31:09.387Z,1.13
2022-08-08T16:32:20.078Z,0.80
2022-08-08T16:33:29.753Z,1.20
2022-08-08T16:34:48.970Z,0.83
2022-08-08T16:35:54.323Z,1.43
2022-08-08T16:36:58.011Z,0.90
2022-08-08T16:38:00.529Z,1.63
2022-08-08T16:39:16.708Z,1.00
2022-08-08T16:40:34.009Z,1.30
2022-08-08T16:41:37.574Z,1.20
2022-08-08T16:42:41.174Z,1.73
2022-08-08T16:43:49.065Z,1.60